Time;durP1;ratioP1;P1;durP2;ratioP2;P2;SDS_P1;SDS_P2;PMS_P1;PMS_P2;Temp;Humidity;BMP_temperature;BMP_pressure;BME280_temperature;BME280_humidity;BME280_pressure;Samples;Min_cycle;Max_cycle;Signal;HPM_P1;HPM_P2
2021/07/29 00:00:21;;;;;;;;;2.00;1.00;;;;;18.53;49.16;101132.66;4978627;28;46002;-88
2021/07/29 00:02:46;;;;;;;;;2.00;2.00;;;;;18.48;49.73;101124.19;4962814;28;45523;-88
2021/07/29 00:05:12;;;;;;;;;1.67;1.67;;;;;18.45;49.82;101124.38;4946462;28;47127;-88
2021/07/29 00:07:38;;;;;;;;;2.00;2.00;;;;;18.43;49.99;101123.63;4978733;28;45292;-87
2021/07/29 00:10:05;;;;;;;;;2.00;2.00;;;;;18.41;50.48;101134.25;4959565;28;45539;-88
2021/07/29 00:12:31;;;;;;;;;3.00;2.00;;;;;18.42;50.19;101138.59;4978972;28;45467;-87
2021/07/29 00:14:56;;;;;;;;;2.00;2.00;;;;;18.40;50.33;101134.34;4978341;28;46260;-87
2021/07/29 00:20:22;;;;;;;;;2.00;2.00;;;;;18.34;50.63;101129.47;4916583;28;45484;-88
2021/07/29 00:22:54;;;;;;;;;2.00;2.00;;;;;18.33;51.03;101133.88;4918325;28;45873;-88
2021/07/29 00:25:20;;;;;;;;;2.33;1.67;;;;;18.26;51.01;101128.19;4917626;28;45468;-88
2021/07/29 00:27:46;;;;;;;;;6.00;3.33;;;;;18.26;51.09;101129.94;4900962;28;45493;-88
2021/07/29 00:30:13;;;;;;;;;2.00;2.00;;;;;18.26;51.06;101127.31;4917722;28;45488;-88
2021/07/29 00:32:39;;;;;;;;;1.00;1.00;;;;;18.29;51.15;101132.41;4933336;28;45580;-88
2021/07/29 00:35:09;;;;;;;;;1.67;1.67;;;;;18.25;51.31;101123.84;4917722;28;46307;-88
2021/07/29 00:37:36;;;;;;;;;1.33;1.33;;;;;18.24;51.24;101127.41;4913111;28;45291;-88
2021/07/29 00:40:05;;;;;;;;;2.67;1.00;;;;;18.23;51.28;101122.25;4911542;28;45466;-87
2021/07/29 00:42:31;;;;;;;;;3.67;2.00;;;;;18.24;51.62;101127.41;4898899;29;44825;-88
2021/07/29 00:44:56;;;;;;;;;2.00;2.00;;;;;18.23;51.53;101127.53;4898836;28;45447;-88
2021/07/29 00:47:22;;;;;;;;;3.00;2.00;;;;;18.21;51.65;101127.63;4904238;28;45288;-88
2021/07/29 00:49:49;;;;;;;;;3.00;2.67;;;;;18.16;51.64;101113.88;4917552;28;45264;-88
2021/07/29 00:52:15;;;;;;;;;3.00;3.00;;;;;18.14;51.72;101126.28;4917108;28;45385;-88
2021/07/29 00:54:42;;;;;;;;;2.67;2.67;;;;;18.12;52.16;101117.63;4900314;28;47296;-88
2021/07/29 00:57:10;;;;;;;;;1.33;1.33;;;;;18.12;51.90;101115.00;4938971;28;45461;-88
2021/07/29 00:59:37;;;;;;;;;1.33;1.33;;;;;18.06;51.97;101116.25;4964259;28;45368;-88
2021/07/29 01:02:03;;;;;;;;;1.00;1.00;;;;;18.02;52.57;101109.44;4942975;28;45360;-88
2021/07/29 01:04:29;;;;;;;;;3.00;2.00;;;;;18.00;52.55;101117.44;4964461;28;46229;-88
2021/07/29 01:06:55;;;;;;;;;2.00;2.00;;;;;17.95;52.56;101118.66;4966084;28;45598;-88
2021/07/29 01:09:20;;;;;;;;;2.00;2.00;;;;;17.94;52.72;101122.22;4976007;28;45351;-88
2021/07/29 01:11:46;;;;;;;;;4.00;2.00;;;;;17.93;53.48;101115.25;4982186;28;45427;-88
2021/07/29 01:14:12;;;;;;;;;3.00;2.00;;;;;17.87;52.64;101122.59;4958111;28;45553;-88
2021/07/29 01:16:38;;;;;;;;;2.00;2.00;;;;;17.89;52.81;101120.72;4966873;28;45462;-89
2021/07/29 01:19:06;;;;;;;;;3.00;2.00;;;;;17.92;53.16;101127.59;4959621;28;45333;-87
2021/07/29 01:21:32;;;;;;;;;2.00;2.00;;;;;17.92;52.99;101124.09;4976638;28;45451;-88
2021/07/29 01:23:58;;;;;;;;;3.67;2.33;;;;;17.93;52.53;101126.66;4959198;28;47150;-88
2021/07/29 01:26:26;;;;;;;;;3.00;2.00;;;;;17.89;52.91;101136.53;4976444;28;45518;-88
2021/07/29 01:28:52;;;;;;;;;3.00;3.00;;;;;17.85;53.57;101140.28;4961665;28;45380;-88
2021/07/29 01:31:18;;;;;;;;;3.00;3.00;;;;;17.80;53.64;101133.59;4964252;28;45481;-88
2021/07/29 01:33:43;;;;;;;;;2.00;1.00;;;;;17.77;53.59;101124.94;4977208;28;46434;-88
2021/07/29 01:36:09;;;;;;;;;2.00;2.00;;;;;17.77;53.89;101127.56;4958342;28;45336;-87
2021/07/29 01:38:34;;;;;;;;;4.00;3.00;;;;;17.77;53.56;101127.56;4974051;28;45431;-88
2021/07/29 01:41:02;;;;;;;;;3.33;2.33;;;;;17.76;53.56;101135.56;4966501;28;45314;-88
2021/07/29 01:43:28;;;;;;;;;6.00;3.00;;;;;17.73;54.12;101133.13;4966661;28;44995;-88
2021/07/29 01:45:53;;;;;;;;;5.75;2.50;;;;;17.69;53.89;101128.97;4975418;28;45246;-88
2021/07/29 01:48:18;;;;;;;;;4.67;3.00;;;;;17.70;53.84;101136.78;4975795;28;45635;-88
2021/07/29 01:50:45;;;;;;;;;3.00;2.00;;;;;17.69;54.40;101144.75;4962964;28;45231;-87
2021/07/29 01:53:10;;;;;;;;;2.00;2.00;;;;;17.65;54.56;101141.47;4972267;28;47417;-88
2021/07/29 01:55:39;;;;;;;;;4.75;3.75;;;;;17.65;54.60;101144.09;4976983;28;45416;-87
2021/07/29 01:58:05;;;;;;;;;1.67;1.00;;;;;17.60;54.16;101140.91;4957492;28;45298;-88
2021/07/29 02:00:30;;;;;;;;;3.67;3.67;;;;;17.55;54.28;101138.53;4961382;28;45521;-88
2021/07/29 02:02:55;;;;;;;;;3.33;3.33;;;;;17.49;54.65;101133.63;4974733;28;46149;-88
2021/07/29 02:05:21;;;;;;;;;2.00;2.00;;;;;17.47;54.76;101135.50;4975430;28;45415;-88
2021/07/29 02:07:46;;;;;;;;;3.00;2.00;;;;;17.46;54.77;101139.09;4977012;28;45224;-88
2021/07/29 02:10:11;;;;;;;;;3.00;3.00;;;;;17.43;54.81;101136.63;4988341;28;45249;-88
2021/07/29 02:12:39;;;;;;;;;2.33;2.00;;;;;17.45;54.94;101142.66;4957283;28;45439;-86
2021/07/29 02:15:05;;;;;;;;;1.67;1.00;;;;;17.44;55.24;101138.31;4963794;28;45425;-88
2021/07/29 02:17:31;;;;;;;;;2.33;2.33;;;;;17.41;55.28;101146.41;4973285;28;45459;-87
2021/07/29 02:19:59;;;;;;;;;3.67;3.00;;;;;17.38;55.28;101138.66;4976471;28;45581;-88
2021/07/29 02:22:25;;;;;;;;;1.00;1.00;;;;;17.38;55.44;101142.16;4976578;28;46624;-87
2021/07/29 02:24:50;;;;;;;;;3.00;2.00;;;;;17.37;55.66;101145.75;4973369;28;44910;-88
2021/07/29 02:27:15;;;;;;;;;2.00;2.00;;;;;17.31;55.20;101130.31;4961326;28;45440;-87
2021/07/29 02:29:42;;;;;;;;;3.00;3.00;;;;;17.31;55.78;101140.84;4960092;28;45318;-88
2021/07/29 02:32:08;;;;;;;;;2.00;2.00;;;;;17.28;56.00;101133.09;4976538;28;46335;-88
2021/07/29 02:34:33;;;;;;;;;2.67;2.00;;;;;17.30;55.43;101149.63;4974332;28;45290;-88
2021/07/29 02:36:59;;;;;;;;;3.33;2.00;;;;;17.28;55.80;101143.63;4963396;28;45500;-88
2021/07/29 02:39:24;;;;;;;;;2.00;2.00;;;;;17.23;55.86;101138.66;4957636;28;45477;-87
2021/07/29 02:41:49;;;;;;;;;3.67;3.00;;;;;17.25;55.83;101149.91;4956738;28;45396;-87
2021/07/29 02:44:16;;;;;;;;;2.00;2.00;;;;;17.25;55.98;101151.72;4962956;28;45307;-88
2021/07/29 02:46:41;;;;;;;;;2.00;2.00;;;;;17.24;55.96;101150.84;4973742;28;45619;-87
2021/07/29 02:49:07;;;;;;;;;5.00;3.25;;;;;17.20;56.19;101155.44;4976673;28;45294;-87
2021/07/29 02:51:32;;;;;;;;;1.33;1.33;;;;;17.15;56.17;101149.59;4961519;28;46268;-88
2021/07/29 02:53:58;;;;;;;;;3.00;3.00;;;;;17.15;56.60;101157.50;4956930;28;45377;-87
2021/07/29 02:56:23;;;;;;;;;2.00;2.00;;;;;17.12;56.89;101152.41;4980317;28;45584;-87
2021/07/29 02:58:48;;;;;;;;;3.00;2.33;;;;;17.11;56.19;101155.13;4975989;28;45543;-87
2021/07/29 03:01:15;;;;;;;;;4.00;2.33;;;;;17.11;56.51;101160.41;4975594;28;45448;-87
2021/07/29 03:03:44;;;;;;;;;3.33;3.00;;;;;17.10;56.27;101164.78;4976121;28;45472;-88
2021/07/29 03:06:10;;;;;;;;;3.00;3.00;;;;;17.07;56.81;101165.81;4975406;28;45282;-87
2021/07/29 03:08:36;;;;;;;;;3.00;3.00;;;;;17.02;56.61;101165.19;4972729;28;45444;-88
2021/07/29 03:11:01;;;;;;;;;5.00;4.00;;;;;16.97;56.77;101164.59;4975879;28;46572;-88
2021/07/29 03:13:27;;;;;;;;;4.00;3.00;;;;;16.95;56.96;101161.22;4975977;28;45363;-88
2021/07/29 03:15:52;;;;;;;;;2.33;2.00;;;;;16.93;57.03;101161.31;4971587;28;45327;-88
2021/07/29 03:18:18;;;;;;;;;3.00;3.00;;;;;16.97;57.03;101164.59;4974181;28;45460;-88
2021/07/29 03:20:44;;;;;;;;;5.33;3.00;;;;;16.93;57.33;101165.69;4975044;28;45844;-88
2021/07/29 03:23:10;;;;;;;;;2.00;1.00;;;;;16.92;57.21;101167.50;4975935;28;45353;-88
2021/07/29 03:25:35;;;;;;;;;3.00;3.00;;;;;16.89;57.44;101166.84;4976205;28;45834;-88
2021/07/29 03:28:01;;;;;;;;;2.00;2.00;;;;;16.83;57.56;101162.75;4970469;28;45354;-88
2021/07/29 03:30:26;;;;;;;;;2.00;2.00;;;;;16.85;57.23;101170.56;4974994;28;45392;-88
2021/07/29 03:32:52;;;;;;;;;3.00;2.67;;;;;16.83;57.47;101158.34;4979260;28;45342;-88
2021/07/29 03:35:17;;;;;;;;;2.00;2.00;;;;;16.86;57.49;101167.84;4979334;28;45252;-89
2021/07/29 03:37:43;;;;;;;;;3.00;3.00;;;;;16.82;57.85;101163.69;4979508;28;45258;-88
2021/07/29 03:40:09;;;;;;;;;2.67;2.67;;;;;16.82;57.70;101166.31;4969180;28;45438;-88
2021/07/29 03:42:35;;;;;;;;;3.00;3.00;;;;;16.78;57.75;101162.16;4959482;28;45668;-88
2021/07/29 03:45:02;;;;;;;;;4.00;2.00;;;;;16.80;57.76;101166.41;4959541;28;45271;-88
2021/07/29 03:47:28;;;;;;;;;3.50;3.50;;;;;16.81;57.89;101172.50;4976048;28;45303;-88
2021/07/29 03:49:53;;;;;;;;;4.00;3.00;;;;;16.81;58.12;101173.34;4992663;28;45645;-88
2021/07/29 03:52:19;;;;;;;;;2.00;2.00;;;;;16.80;58.14;101174.28;4978849;28;45401;-88
2021/07/29 03:54:45;;;;;;;;;2.00;2.00;;;;;16.77;57.76;101182.34;4976520;28;45383;-88
2021/07/29 03:57:11;;;;;;;;;3.00;3.00;;;;;16.77;57.98;101178.84;4993875;28;45739;-88
2021/07/29 03:59:36;;;;;;;;;2.00;2.00;;;;;16.77;57.96;101184.13;4959027;28;47433;-88
2021/07/29 04:02:09;;;;;;;;;3.00;2.00;;;;;16.81;58.13;101185.66;4978371;28;45377;-88
2021/07/29 04:04:34;;;;;;;;;3.33;3.00;;;;;16.83;58.06;101187.25;4959468;28;45468;-88
2021/07/29 04:07:00;;;;;;;;;2.67;1.67;;;;;16.85;58.36;101175.81;4945024;28;45481;-88
2021/07/29 04:09:25;;;;;;;;;4.00;3.00;;;;;16.83;58.40;101175.88;4973429;28;46029;-88
2021/07/29 04:11:50;;;;;;;;;2.00;2.00;;;;;16.83;58.28;101178.53;4973133;28;45435;-87
2021/07/29 04:14:16;;;;;;;;;5.00;3.00;;;;;16.86;58.22;101186.25;4978445;28;45255;-88
2021/07/29 04:16:41;;;;;;;;;3.00;3.00;;;;;16.81;58.09;101181.22;4968994;28;46486;-88
2021/07/29 04:19:07;;;;;;;;;2.33;2.33;;;;;16.85;58.50;101186.31;4978077;28;45588;-88
2021/07/29 04:21:32;;;;;;;;;3.00;3.00;;;;;16.83;58.36;101183.78;4973561;28;45408;-88
2021/07/29 04:23:57;;;;;;;;;2.00;2.00;;;;;16.82;58.60;101185.53;4978530;28;45463;-88
2021/07/29 04:26:23;;;;;;;;;3.00;2.00;;;;;16.82;58.43;101184.72;4978644;28;45338;-88
2021/07/29 04:28:48;;;;;;;;;4.00;2.00;;;;;16.83;59.03;101181.16;4960498;28;48368;-88
2021/07/29 04:31:13;;;;;;;;;2.33;2.33;;;;;16.84;57.91;101188.09;4969193;28;45453;-87
2021/07/29 04:33:39;;;;;;;;;3.00;3.00;;;;;16.83;58.63;101189.03;4977306;28;45268;-88
2021/07/29 04:36:05;;;;;;;;;3.00;3.00;;;;;16.80;58.35;101190.03;4974020;28;45301;-88
2021/07/29 04:38:32;;;;;;;;;2.33;2.00;;;;;16.81;58.80;101191.75;4958690;28;45576;-88
2021/07/29 04:41:05;;;;;;;;;4.00;2.67;;;;;16.78;58.55;101188.44;4958076;28;45370;-89
2021/07/29 04:43:31;;;;;;;;;3.00;2.00;;;;;16.77;59.00;101192.00;4969186;28;45364;-88
2021/07/29 04:46:00;;;;;;;;;3.00;1.33;;;;;16.78;58.72;101196.31;4960987;28;45413;-88
2021/07/29 04:48:25;;;;;;;;;3.00;3.00;;;;;16.82;58.59;101189.97;4976863;28;47221;-88
2021/07/29 04:50:50;;;;;;;;;3.33;3.33;;;;;16.85;58.67;101192.41;4958283;28;45455;-87
2021/07/29 04:53:16;;;;;;;;;6.00;2.67;;;;;16.88;59.12;101192.25;4945658;28;45251;-88
2021/07/29 04:55:41;;;;;;;;;4.67;4.67;;;;;16.90;59.00;101193.00;4978162;28;45497;-88
2021/07/29 04:58:07;;;;;;;;;4.33;3.33;;;;;16.91;58.81;101192.09;4977746;28;46011;-88
2021/07/29 05:00:32;;;;;;;;;2.67;2.67;;;;;16.93;58.94;101192.00;4949152;28;45528;-88
2021/07/29 05:02:58;;;;;;;;;2.00;2.00;;;;;16.89;59.16;101188.69;4956744;28;45444;-88
2021/07/29 05:05:23;;;;;;;;;4.00;3.00;;;;;16.88;58.95;101197.50;4988861;28;45451;-88
2021/07/29 05:07:52;;;;;;;;;3.00;2.33;;;;;16.88;58.95;101194.88;4976205;28;46411;-88
2021/07/29 05:10:18;;;;;;;;;4.00;3.00;;;;;16.93;59.00;101194.63;4995769;28;45400;-88
2021/07/29 05:12:43;;;;;;;;;2.00;2.00;;;;;16.92;59.00;101203.44;4997230;28;45572;-88
2021/07/29 05:15:09;;;;;;;;;5.00;4.33;;;;;16.90;58.97;101192.19;4971277;28;45614;-88
2021/07/29 05:17:34;;;;;;;;;2.67;2.67;;;;;16.91;59.48;101196.50;4977771;28;45439;-88
2021/07/29 05:20:00;;;;;;;;;4.00;4.00;;;;;16.90;58.97;101205.31;4976530;28;45485;-88
2021/07/29 05:22:25;;;;;;;;;4.00;3.33;;;;;16.88;59.43;101199.28;4956835;28;45369;-88
2021/07/29 05:24:51;;;;;;;;;2.33;2.33;;;;;16.92;59.47;101199.03;4958366;28;45502;-87
2021/07/29 05:27:16;;;;;;;;;4.00;3.00;;;;;16.92;59.19;101204.31;4975976;28;46225;-88
2021/07/29 05:29:41;;;;;;;;;5.00;3.00;;;;;16.95;59.12;101205.91;4968478;28;45287;-88
2021/07/29 05:32:08;;;;;;;;;3.33;3.33;;;;;16.94;59.03;101199.78;4976722;28;45551;-87
2021/07/29 05:34:33;;;;;;;;;5.00;4.00;;;;;16.90;59.46;101203.53;4977744;28;45310;-88
2021/07/29 05:36:59;;;;;;;;;3.00;2.33;;;;;16.92;59.08;101212.19;4977288;28;45480;-88
2021/07/29 05:39:24;;;;;;;;;3.00;3.00;;;;;16.90;59.85;101206.16;4995557;28;45253;-88
2021/07/29 05:41:49;;;;;;;;;4.00;3.00;;;;;16.88;59.27;101213.28;4981358;28;45365;-88
2021/07/29 05:44:15;;;;;;;;;4.00;2.67;;;;;16.86;59.70;101209.91;4959831;28;45611;-88
2021/07/29 05:46:40;;;;;;;;;5.00;3.00;;;;;16.87;59.90;101208.97;4974373;28;45520;-88
2021/07/29 05:49:05;;;;;;;;;2.00;2.00;;;;;16.87;59.43;101210.72;4977331;28;45429;-88
2021/07/29 05:51:31;;;;;;;;;3.00;3.00;;;;;16.85;59.86;101213.44;4968921;28;45511;-88
2021/07/29 05:53:56;;;;;;;;;3.67;3.00;;;;;16.85;59.94;101212.59;4957953;28;45459;-88
2021/07/29 05:56:21;;;;;;;;;3.00;3.00;;;;;16.87;59.61;101223.88;4975329;28;45379;-88
2021/07/29 05:58:47;;;;;;;;;3.33;2.67;;;;;16.87;59.75;101214.22;4976125;28;45500;-88
2021/07/29 06:01:12;;;;;;;;;3.75;2.25;;;;;16.87;59.62;101210.72;4968723;28;45423;-87
2021/07/29 06:03:38;;;;;;;;;4.00;4.00;;;;;16.90;59.44;101215.84;4951139;28;45286;-88
2021/07/29 06:06:03;;;;;;;;;5.00;4.00;;;;;16.91;60.16;101209.63;4976622;28;46296;-88
2021/07/29 06:08:28;;;;;;;;;3.50;3.50;;;;;16.94;59.85;101212.94;4963833;28;45470;-88
2021/07/29 06:10:54;;;;;;;;;4.00;2.00;;;;;16.98;59.70;101205.72;4972163;28;45779;-88
2021/07/29 06:13:19;;;;;;;;;7.25;6.00;;;;;17.02;59.27;101203.78;4958147;28;45503;-88
2021/07/29 06:15:44;;;;;;;;;3.25;2.75;;;;;16.99;59.61;101204.78;4976614;28;45351;-88
2021/07/29 06:18:12;;;;;;;;;4.75;3.00;;;;;17.01;59.54;101218.72;4975380;28;45435;-88
2021/07/29 06:20:38;;;;;;;;;5.75;3.00;;;;;17.02;59.87;101222.16;4974430;28;45579;-88
2021/07/29 06:23:03;;;;;;;;;5.00;2.00;;;;;17.03;59.87;101222.13;4973344;28;45565;-88
2021/07/29 06:25:29;;;;;;;;;4.50;3.00;;;;;17.05;60.06;101222.91;4965691;28;47405;-88
2021/07/29 06:27:54;;;;;;;;;4.75;3.00;;;;;17.05;59.74;101227.31;4957049;28;45318;-88
2021/07/29 06:30:20;;;;;;;;;3.50;3.50;;;;;17.06;59.71;101232.50;4940522;28;45886;-88
2021/07/29 06:32:48;;;;;;;;;3.00;3.00;;;;;17.07;59.96;101236.81;4970460;28;45379;-88
2021/07/29 06:35:14;;;;;;;;;3.00;3.00;;;;;17.07;59.84;101235.94;4961315;28;45724;-87
2021/07/29 06:37:39;;;;;;;;;4.50;4.00;;;;;17.09;59.55;101247.25;4957236;28;44784;-88
2021/07/29 06:40:06;;;;;;;;;5.25;4.00;;;;;17.06;59.62;101242.16;4957779;28;45591;-89
2021/07/29 06:42:32;;;;;;;;;4.75;3.50;;;;;17.07;60.15;101238.56;4946977;28;45721;-88
2021/07/29 06:44:57;;;;;;;;;3.00;3.00;;;;;17.11;59.59;101237.47;4972930;28;45547;-89
2021/07/29 06:47:23;;;;;;;;;5.00;3.00;;;;;17.16;59.65;101242.47;4974041;28;45450;-89
2021/07/29 06:49:49;;;;;;;;;4.00;3.00;;;;;17.23;59.80;101249.94;4959317;28;45593;-88
2021/07/29 06:52:16;;;;;;;;;3.00;3.00;;;;;17.27;59.73;101239.25;4952844;28;45682;-88
2021/07/29 06:54:41;;;;;;;;;6.00;3.00;;;;;17.31;59.41;101246.03;4968971;28;46272;-88
2021/07/29 06:57:08;;;;;;;;;4.50;2.75;;;;;17.31;59.31;101235.53;4960265;28;45420;-88
2021/07/29 06:59:34;;;;;;;;;4.00;2.25;;;;;17.36;59.68;101244.00;4974541;28;45656;-88
2021/07/29 07:02:00;;;;;;;;;4.00;4.00;;;;;17.41;59.65;101252.47;4954225;28;45391;-88
2021/07/29 07:04:26;;;;;;;;;3.25;3.25;;;;;17.43;59.44;101247.13;4964400;28;45432;-88
2021/07/29 07:06:52;;;;;;;;;4.00;2.25;;;;;17.45;59.26;101250.53;4958809;28;45454;-88
2021/07/29 07:09:17;;;;;;;;;3.00;3.00;;;;;17.45;59.73;101256.63;4963986;28;44858;-88
2021/07/29 07:11:42;;;;;;;;;3.00;3.00;;;;;17.48;59.43;101264.34;4975433;28;45388;-88
2021/07/29 07:14:09;;;;;;;;;3.00;3.00;;;;;17.51;59.54;101273.84;4979148;28;46198;-89
2021/07/29 07:16:35;;;;;;;;;4.50;3.75;;;;;17.54;58.96;101267.56;4976347;28;45274;-88
2021/07/29 07:19:01;;;;;;;;;4.00;4.00;;;;;17.54;59.19;101265.75;4979478;28;45483;-88
2021/07/29 07:21:26;;;;;;;;;3.33;3.00;;;;;17.60;59.47;101268.03;4978951;28;45459;-87
2021/07/29 07:23:52;;;;;;;;;3.00;3.00;;;;;17.66;58.97;101271.25;4964668;28;46107;-89
2021/07/29 07:26:19;;;;;;;;;3.00;3.00;;;;;17.69;59.31;101281.63;4958242;28;45475;-88
2021/07/29 07:28:46;;;;;;;;;4.33;4.33;;;;;17.72;58.88;101270.91;4959981;28;45418;-88
2021/07/29 07:31:12;;;;;;;;;4.00;3.67;;;;;17.78;58.82;101283.72;4961487;28;45356;-87
2021/07/29 07:33:37;;;;;;;;;2.33;2.33;;;;;17.83;58.82;101279.03;4968396;28;46227;-88
2021/07/29 07:36:06;;;;;;;;;3.00;3.00;;;;;17.89;58.50;101272.56;4958263;28;45252;-88
2021/07/29 07:38:31;;;;;;;;;6.00;3.50;;;;;17.94;58.44;101280.19;4959754;28;45421;-89
2021/07/29 07:41:02;;;;;;;;;3.25;3.00;;;;;17.95;58.24;101282.72;4966112;28;45583;-88
2021/07/29 07:43:27;;;;;;;;;5.00;5.00;;;;;17.97;58.27;101272.94;4972933;28;46683;-88
2021/07/29 07:45:53;;;;;;;;;4.00;4.00;;;;;17.97;58.21;101267.69;4959377;28;45320;-89
2021/07/29 07:48:21;;;;;;;;;3.00;2.50;;;;;18.02;57.98;101267.44;4959380;28;45350;-89
2021/07/29 07:50:47;;;;;;;;;3.00;3.00;;;;;18.08;58.42;101276.75;4963324;28;45455;-86
2021/07/29 07:53:14;;;;;;;;;3.67;2.33;;;;;18.15;58.54;101278.94;4976886;28;46552;-86
2021/07/29 07:55:40;;;;;;;;;3.00;2.67;;;;;18.18;58.01;101271.81;4970150;28;45357;-86
2021/07/29 07:58:05;;;;;;;;;4.00;3.00;;;;;18.22;57.81;101278.56;4943034;28;45350;-86
2021/07/29 08:00:30;;;;;;;;;4.67;3.00;;;;;18.25;57.62;101267.88;4954934;28;45531;-86
2021/07/29 08:02:56;;;;;;;;;3.00;3.00;;;;;18.32;57.94;101281.53;4960839;28;47088;-89
2021/07/29 08:05:21;;;;;;;;;5.33;3.33;;;;;18.33;57.50;101277.94;4985396;28;45653;-87
2021/07/29 08:07:47;;;;;;;;;7.00;3.00;;;;;18.38;57.79;101273.25;4972154;28;45460;-86
2021/07/29 08:10:12;;;;;;;;;4.33;3.00;;;;;18.42;57.31;101267.69;4978032;28;45465;-87
2021/07/29 08:12:38;;;;;;;;;2.33;2.33;;;;;18.50;57.19;101269.00;4975871;28;45790;-87
2021/07/29 08:15:04;;;;;;;;;5.67;4.00;;;;;18.54;57.36;101265.25;4967057;28;45492;-87
2021/07/29 08:17:29;;;;;;;;;4.00;2.33;;;;;18.63;57.58;101266.47;4985275;28;45602;-87
2021/07/29 08:19:55;;;;;;;;;5.00;2.67;;;;;18.71;56.95;101264.22;4988119;28;46150;-87
2021/07/29 08:22:20;;;;;;;;;4.33;2.67;;;;;18.77;56.57;101265.59;4977963;28;45377;-87
2021/07/29 08:24:45;;;;;;;;;4.00;4.00;;;;;18.80;55.85;101260.16;4970666;28;45549;-88
2021/07/29 08:27:11;;;;;;;;;4.33;4.00;;;;;18.81;55.53;101262.69;4965123;28;45310;-87
2021/07/29 08:29:37;;;;;;;;;5.00;5.00;;;;;18.86;55.70;101262.41;4970029;28;45698;-87
2021/07/29 08:32:04;;;;;;;;;4.00;3.00;;;;;18.94;55.53;101267.19;4960159;28;45925;-87
2021/07/29 08:34:51;;;;;;;;;3.00;3.00;;;;;18.99;54.77;101256.34;4977984;28;45478;-89
2021/07/29 08:37:15;;;;;;;;;2.33;2.33;;;;;19.05;54.59;101251.56;4977750;28;45519;-89
2021/07/29 08:39:47;;;;;;;;;4.00;3.33;;;;;19.12;54.80;101259.09;4975843;28;45039;-87
2021/07/29 08:42:12;;;;;;;;;5.00;3.00;;;;;19.12;54.07;101256.44;4993229;28;48159;-88
2021/07/29 08:44:38;;;;;;;;;2.00;2.00;;;;;19.16;54.10;101258.78;4997058;28;45449;-86
2021/07/29 08:47:10;;;;;;;;;3.00;3.00;;;;;19.17;54.00;101257.00;4962863;28;45388;-87
2021/07/29 08:49:38;;;;;;;;;2.67;2.00;;;;;19.20;53.38;101262.91;4958692;28;45320;-87
2021/07/29 08:52:04;;;;;;;;;4.00;2.33;;;;;19.26;53.27;101261.69;4958053;28;45834;-87
2021/07/29 08:54:29;;;;;;;;;2.67;2.67;;;;;19.32;53.00;101265.72;4958066;28;45457;-87
2021/07/29 08:56:55;;;;;;;;;4.75;3.75;;;;;19.39;53.32;101263.53;4976316;28;45295;-87
2021/07/29 08:59:20;;;;;;;;;3.67;3.67;;;;;19.46;52.49;101252.47;4997448;28;45343;-87
2021/07/29 09:01:52;;;;;;;;;3.00;3.00;;;;;19.50;52.69;101261.03;4997157;28;46206;-87
2021/07/29 09:04:18;;;;;;;;;3.00;2.00;;;;;19.55;52.46;101266.84;4997064;28;45441;-87
2021/07/29 09:06:57;;;;;;;;;1.67;1.67;;;;;19.63;51.79;101258.44;4971598;28;44806;-86
2021/07/29 09:09:45;;;;;;;;;2.67;2.67;;;;;19.71;51.65;101252.63;4997496;28;45427;-87
2021/07/29 09:12:32;;;;;;;;;2.00;2.00;;;;;19.80;51.64;101257.28;4995477;28;46275;-87
2021/07/29 09:14:58;;;;;;;;;2.00;2.00;;;;;19.87;51.20;101241.88;4995473;28;45600;-87
2021/07/29 09:17:24;;;;;;;;;0.00;0.00;;;;;19.99;50.86;101256.94;4991817;28;45876;-87
2021/07/29 09:19:53;;;;;;;;;2.00;2.00;;;;;20.06;50.97;101243.31;4997216;28;45474;-87
2021/07/29 09:22:24;;;;;;;;;1.00;1.00;;;;;20.11;50.91;101246.47;4996819;28;45466;-87
2021/07/29 09:25:04;;;;;;;;;4.67;3.00;;;;;20.12;50.43;101246.38;4996748;28;45441;-87
2021/07/29 09:27:39;;;;;;;;;4.00;2.00;;;;;20.13;50.67;101250.72;4996606;28;45500;-86
2021/07/29 09:30:31;;;;;;;;;2.00;2.00;;;;;20.07;50.54;101245.84;4993421;28;45531;-88
2021/07/29 09:33:05;;;;;;;;;2.00;2.00;;;;;20.10;50.69;101247.44;4994461;28;46629;-87
2021/07/29 09:35:33;;;;;;;;;6.33;5.00;;;;;20.18;50.48;101254.84;4996553;28;45336;-89
2021/07/29 09:38:00;;;;;;;;;3.33;1.00;;;;;20.24;50.15;101242.06;4996574;28;45502;-87
2021/07/29 09:40:26;;;;;;;;;2.33;2.33;;;;;20.31;49.43;101239.81;4989180;28;44771;-86
2021/07/29 09:43:13;;;;;;;;;2.33;2.33;;;;;20.34;49.01;101238.75;4996413;28;46128;-89
2021/07/29 09:45:39;;;;;;;;;5.00;2.00;;;;;20.33;49.05;101235.28;4978366;28;45524;-87
2021/07/29 09:48:07;;;;;;;;;2.00;1.67;;;;;20.35;48.92;101245.72;4996479;28;45488;-86
2021/07/29 09:50:40;;;;;;;;;3.33;3.00;;;;;20.36;48.62;101247.44;4988123;28;45382;-86
2021/07/29 09:53:06;;;;;;;;;2.33;2.33;;;;;20.32;48.99;101256.53;4995411;28;45466;-87
2021/07/29 09:55:31;;;;;;;;;3.00;2.00;;;;;20.29;48.58;101244.38;4978713;28;45299;-87
2021/07/29 09:57:59;;;;;;;;;5.00;3.00;;;;;20.25;48.67;101237.59;4996322;28;45331;-87
2021/07/29 10:00:24;;;;;;;;;3.00;2.00;;;;;20.33;48.66;101243.22;4995451;28;44843;-87
2021/07/29 10:02:52;;;;;;;;;4.00;2.00;;;;;20.42;49.13;101231.16;4993628;28;45243;-87
2021/07/29 10:05:25;;;;;;;;;1.00;1.00;;;;;20.56;48.82;101231.00;4995112;28;45402;-87
2021/07/29 10:07:53;;;;;;;;;3.00;3.00;;;;;20.74;49.07;101220.06;4972935;28;45408;-87
2021/07/29 10:10:25;;;;;;;;;2.00;2.00;;;;;20.95;48.67;101235.38;4996165;28;45569;-86
2021/07/29 10:12:51;;;;;;;;;3.00;2.33;;;;;21.06;48.19;101240.75;4996069;28;45389;-87
2021/07/29 10:15:37;;;;;;;;;4.33;3.00;;;;;21.11;47.76;101231.63;4995772;28;46016;-87
2021/07/29 10:18:03;;;;;;;;;3.00;2.00;;;;;21.09;47.12;101234.38;4990416;28;45473;-87
2021/07/29 10:20:32;;;;;;;;;4.67;3.00;;;;;21.10;48.10;101233.41;4994872;28;45425;-87
2021/07/29 10:23:13;;;;;;;;;2.00;2.00;;;;;21.18;47.44;101235.50;4978347;28;46966;-87
2021/07/29 10:25:54;;;;;;;;;2.00;2.00;;;;;21.26;46.47;101232.28;4994685;28;45482;-87
2021/07/29 10:28:25;;;;;;;;;2.00;1.00;;;;;21.29;46.51;101224.97;4989148;28;45436;-89
2021/07/29 10:30:53;;;;;;;;;2.67;2.00;;;;;21.42;45.66;101229.38;4996059;28;45434;-87
2021/07/29 10:33:19;;;;;;;;;2.00;2.00;;;;;21.54;45.25;101222.31;4995869;28;45291;-87
2021/07/29 10:35:44;;;;;;;;;1.33;1.33;;;;;21.70;45.74;101217.56;4981308;28;45475;-88
2021/07/29 10:38:10;;;;;;;;;2.33;2.33;;;;;21.88;45.43;101219.75;4976975;28;45504;-87
2021/07/29 10:40:40;;;;;;;;;1.67;1.00;;;;;22.08;44.12;101210.28;4998438;28;45297;-87
2021/07/29 10:43:24;;;;;;;;;0.33;0.00;;;;;22.25;43.98;101218.72;4999284;28;45786;-87
2021/07/29 10:45:54;;;;;;;;;1.67;1.67;;;;;22.37;43.68;101209.81;4998912;28;45458;-88
2021/07/29 10:48:45;;;;;;;;;1.00;1.00;;;;;22.57;42.98;101215.38;4990926;28;45482;-87
2021/07/29 10:51:18;;;;;;;;;4.00;2.00;;;;;22.75;43.14;101213.06;4960189;28;45428;-87
2021/07/29 10:53:46;;;;;;;;;2.33;1.33;;;;;22.98;43.49;101205.03;4959882;28;45691;-87
2021/07/29 10:56:13;;;;;;;;;1.33;1.33;;;;;23.17;42.91;101215.00;4959942;28;45444;-87
2021/07/29 10:58:43;;;;;;;;;0.67;0.67;;;;;23.33;42.43;101224.38;4959698;28;45337;-87
2021/07/29 11:01:10;;;;;;;;;1.33;1.33;;;;;23.41;41.78;101208.63;4995249;28;45430;-87
2021/07/29 11:03:46;;;;;;;;;1.67;1.00;;;;;23.36;41.92;101210.81;4998683;28;45409;-87
2021/07/29 11:06:14;;;;;;;;;1.33;1.33;;;;;23.33;41.45;101225.19;4997545;28;45536;-87
2021/07/29 11:08:42;;;;;;;;;1.00;1.00;;;;;23.25;41.44;101214.34;4999117;28;45299;-87
2021/07/29 11:11:07;;;;;;;;;2.33;0.33;;;;;23.18;41.53;101211.34;4993420;28;45632;-87
2021/07/29 11:13:35;;;;;;;;;0.00;0.00;;;;;23.22;41.58;101219.91;4997504;28;45706;-88
2021/07/29 11:16:02;;;;;;;;;0.00;0.00;;;;;23.23;41.86;101205.66;4997392;28;45483;-87
2021/07/29 11:18:27;;;;;;;;;0.00;0.00;;;;;23.29;41.49;101213.09;4998704;28;45235;-87
2021/07/29 11:20:54;;;;;;;;;1.00;1.00;;;;;23.30;41.01;101206.84;4993875;28;45646;-87
2021/07/29 11:23:36;;;;;;;;;2.00;1.33;;;;;23.34;40.79;101204.81;4998585;28;45383;-87
2021/07/29 11:26:04;;;;;;;;;1.00;0.00;;;;;23.37;39.03;101201.06;4998605;28;45441;-87